Time;durP1;ratioP1;P1;durP2;ratioP2;P2;SDS_P1;SDS_P2;PMS_P1;PMS_P2;Temp;Humidity;BMP_temperature;BMP_pressure;BME280_temperature;BME280_humidity;BME280_pressure;Samples;Min_cycle;Max_cycle;Signal;HPM_P1;HPM_P2
2023/12/14 00:00:42;;;;;;;2.63;2.20;;;31.70;99.90;;;;;;4975372;28;20189;-74
2023/12/14 00:03:15;;;;;;;5.15;2.47;;;31.70;99.90;;;;;;4974128;28;20192;-77
2023/12/14 00:05:46;;;;;;;3.17;2.20;;;31.90;99.90;;;;;;4970673;28;20220;-74
2023/12/14 00:08:17;;;;;;;52.17;36.63;;;32.00;99.90;;;;;;4956298;28;20312;-74
2023/12/14 00:10:50;;;;;;;15.15;10.68;;;31.90;99.90;;;;;;4974332;28;20193;-75
2023/12/14 00:13:21;;;;;;;7.45;5.47;;;32.20;99.90;;;;;;4966759;28;20562;-74
2023/12/14 00:15:52;;;;;;;6.85;5.22;;;32.50;99.90;;;;;;4965707;28;20207;-74
2023/12/14 00:18:28;;;;;;;9.15;4.95;;;32.70;99.90;;;;;;4956317;28;20280;-74
2023/12/14 00:21:04;;;;;;;4.68;3.05;;;32.90;99.90;;;;;;4973836;28;20220;-76
2023/12/14 00:23:37;;;;;;;4.43;2.80;;;33.00;99.90;;;;;;4974359;28;20652;-76
2023/12/14 00:26:08;;;;;;;5.53;2.80;;;33.20;99.90;;;;;;4959285;28;20695;-76
2023/12/14 00:28:39;;;;;;;3.45;2.17;;;33.30;99.90;;;;;;4975679;28;20200;-77
2023/12/14 00:31:10;;;;;;;7.38;2.20;;;33.50;99.90;;;;;;4955892;28;20189;-75
2023/12/14 00:33:44;;;;;;;6.38;2.50;;;33.70;99.90;;;;;;4955716;28;20192;-75
2023/12/14 00:36:21;;;;;;;4.03;2.13;;;33.90;99.90;;;;;;4956115;28;20664;-76
2023/12/14 00:38:53;;;;;;;4.00;2.05;;;34.00;99.90;;;;;;4957663;28;20196;-76
2023/12/14 00:41:24;;;;;;;4.78;2.17;;;34.20;99.90;;;;;;4975047;28;20235;-75
2023/12/14 00:43:55;;;;;;;3.20;2.08;;;34.30;99.90;;;;;;4975371;28;20204;-76
2023/12/14 00:46:26;;;;;;;4.68;2.00;;;34.40;99.90;;;;;;4975265;28;20306;-73
2023/12/14 00:48:59;;;;;;;102.45;82.03;;;34.50;99.90;;;;;;4974939;28;20214;-73
2023/12/14 00:51:30;;;;;;;9.32;6.22;;;34.60;99.90;;;;;;4962248;28;20197;-73
2023/12/14 00:54:01;;;;;;;6.60;3.55;;;34.80;99.90;;;;;;4956854;28;20200;-77
2023/12/14 00:56:31;;;;;;;5.20;3.10;;;;;;;;;;4974978;28;20222;-72
2023/12/14 00:59:03;;;;;;;5.15;2.17;;;34.80;99.90;;;;;;4975070;28;20294;-74
2023/12/14 01:01:34;;;;;;;4.82;2.50;;;34.90;99.90;;;;;;4973570;28;20270;-74
2023/12/14 01:04:08;;;;;;;5.30;2.47;;;35.00;99.90;;;;;;4974672;28;20651;-75
2023/12/14 01:06:39;;;;;;;3.75;2.22;;;35.10;99.90;;;;;;4974417;28;20196;-73
2023/12/14 01:09:10;;;;;;;5.35;2.10;;;35.10;99.90;;;;;;4974992;28;20191;-74
2023/12/14 01:11:41;;;;;;;4.88;2.50;;;35.20;99.90;;;;;;4964058;28;20203;-75
2023/12/14 01:14:12;;;;;;;6.13;2.47;;;35.30;99.90;;;;;;4974263;28;20200;-74
2023/12/14 01:16:44;;;;;;;5.47;2.25;;;35.50;99.90;;;;;;4974097;28;20203;-75
2023/12/14 01:19:17;;;;;;;4.15;1.95;;;35.50;99.90;;;;;;4973970;28;20201;-75
2023/12/14 01:21:48;;;;;;;3.20;1.85;;;35.60;99.90;;;;;;4972193;28;20219;-75
2023/12/14 01:24:19;;;;;;;2.65;1.67;;;35.60;99.90;;;;;;4973125;28;20236;-74
2023/12/14 01:26:50;;;;;;;5.20;1.83;;;35.70;99.90;;;;;;4955369;28;20236;-74
2023/12/14 01:29:21;;;;;;;4.03;1.67;;;35.80;99.90;;;;;;4970890;28;20566;-75
2023/12/14 01:31:52;;;;;;;4.20;1.73;;;35.80;99.90;;;;;;4974795;28;20199;-74
2023/12/14 01:34:26;;;;;;;4.43;2.03;;;35.90;99.90;;;;;;4974294;28;20188;-75
2023/12/14 01:36:58;;;;;;;1.85;1.60;;;35.80;99.90;;;;;;4975055;28;20631;-75
2023/12/14 01:39:29;;;;;;;7.00;1.90;;;35.90;99.90;;;;;;4974282;28;20200;-73
2023/12/14 01:42:00;;;;;;;4.40;1.55;;;36.00;99.90;;;;;;4955399;28;20212;-75
2023/12/14 01:44:33;;;;;;;4.28;1.60;;;36.30;99.90;;;;;;4956824;28;20192;-75
2023/12/14 01:47:05;;;;;;;4.20;1.80;;;36.40;99.90;;;;;;4959178;28;20570;-75
2023/12/14 01:49:38;;;;;;;3.75;1.60;;;36.40;99.90;;;;;;4958783;28;20678;-74
2023/12/14 01:52:09;;;;;;;3.22;1.80;;;36.50;99.90;;;;;;4958966;28;20196;-74
2023/12/14 01:54:41;;;;;;;2.92;1.52;;;36.60;99.90;;;;;;4959399;28;20196;-74
2023/12/14 01:57:12;;;;;;;3.20;1.67;;;36.70;99.90;;;;;;4958892;28;20196;-75
2023/12/14 01:59:43;;;;;;;3.47;1.35;;;37.00;99.90;;;;;;4975176;28;20192;-75
2023/12/14 02:02:14;;;;;;;5.22;1.70;;;37.20;99.90;;;;;;4968769;28;20203;-73
2023/12/14 02:04:47;;;;;;;2.75;1.67;;;37.20;99.90;;;;;;4977824;28;20274;-75
2023/12/14 02:07:19;;;;;;;4.47;1.80;;;37.20;99.90;;;;;;4976210;28;20561;-74
2023/12/14 02:09:50;;;;;;;5.53;2.20;;;37.10;99.90;;;;;;4977693;28;20192;-74
2023/12/14 02:12:21;;;;;;;3.83;1.75;;;37.20;99.90;;;;;;4978008;28;20188;-74
2023/12/14 02:14:53;;;;;;;1.75;1.48;;;37.30;99.90;;;;;;4964466;28;20213;-75
2023/12/14 02:17:24;;;;;;;3.70;1.80;;;37.40;99.90;;;;;;4974976;28;20278;-74
2023/12/14 02:19:58;;;;;;;3.55;1.67;;;37.20;99.90;;;;;;4976630;28;20227;-75
2023/12/14 02:22:29;;;;;;;3.13;1.40;;;37.00;99.90;;;;;;4976755;28;20291;-74
2023/12/14 02:25:04;;;;;;;4.60;1.38;;;37.00;99.90;;;;;;4977223;28;20215;-74
2023/12/14 02:27:35;;;;;;;2.55;1.42;;;37.20;99.90;;;;;;4971733;28;20188;-74
2023/12/14 02:30:06;;;;;;;3.13;1.10;;;37.50;99.90;;;;;;4974275;28;20195;-74
2023/12/14 02:32:37;;;;;;;1.90;0.90;;;37.70;99.90;;;;;;4973307;28;20213;-74
2023/12/14 02:35:10;;;;;;;2.50;1.00;;;37.60;99.90;;;;;;4975865;28;20198;-74
2023/12/14 02:37:42;;;;;;;2.05;1.00;;;37.50;99.90;;;;;;4977748;28;20191;-75
2023/12/14 02:40:15;;;;;;;3.15;1.10;;;37.60;99.90;;;;;;4977070;28;20533;-74
2023/12/14 02:42:46;;;;;;;1.83;0.85;;;37.80;99.90;;;;;;4965912;28;20218;-74
2023/12/14 02:45:16;;;;;;;4.63;1.23;;;38.10;99.90;;;;;;4976642;28;20579;-74
2023/12/14 02:47:49;;;;;;;4.07;1.00;;;38.10;99.90;;;;;;4977235;28;20195;-74
2023/12/14 02:50:20;;;;;;;2.38;0.90;;;38.20;99.90;;;;;;4976952;28;20258;-74
2023/12/14 02:52:51;;;;;;;2.85;1.20;;;38.00;99.90;;;;;;4977580;28;20191;-74
2023/12/14 02:55:24;;;;;;;1.08;0.80;;;37.90;99.90;;;;;;4976704;28;20199;-75
2023/12/14 02:57:54;;;;;;;2.72;0.90;;;37.90;99.50;;;;;;4977831;28;20648;-74
2023/12/14 03:00:25;;;;;;;4.75;0.90;;;37.80;98.90;;;;;;4974093;28;20231;-76
2023/12/14 03:02:56;;;;;;;2.67;1.10;;;37.80;98.80;;;;;;4965978;28;20278;-75
2023/12/14 03:05:27;;;;;;;2.85;1.20;;;37.80;98.50;;;;;;4976944;28;20218;-75
2023/12/14 03:07:58;;;;;;;1.52;0.80;;;38.00;98.60;;;;;;4977011;28;20192;-74
2023/12/14 03:10:30;;;;;;;1.88;0.98;;;38.10;98.40;;;;;;4976838;28;20188;-73
2023/12/14 03:13:01;;;;;;;4.47;1.20;;;38.20;98.10;;;;;;4975327;28;20274;-76
2023/12/14 03:15:32;;;;;;;1.38;0.90;;;38.30;97.50;;;;;;4974663;28;20196;-74
2023/12/14 03:18:03;;;;;;;2.08;0.80;;;38.20;97.30;;;;;;4975952;28;20196;-75
2023/12/14 03:20:34;;;;;;;2.50;1.10;;;38.20;96.90;;;;;;4976439;28;20259;-73
2023/12/14 03:23:05;;;;;;;4.32;1.25;;;38.20;97.20;;;;;;4976093;28;20632;-75
2023/12/14 03:25:37;;;;;;;2.83;1.10;;;38.30;97.60;;;;;;4976142;28;20261;-74
2023/12/14 03:28:09;;;;;;;2.65;1.10;;;38.30;98.20;;;;;;4971087;28;20188;-74
2023/12/14 03:30:40;;;;;;;1.40;0.85;;;38.20;98.10;;;;;;4966246;28;20735;-75
2023/12/14 03:33:11;;;;;;;2.95;1.00;;;38.20;97.80;;;;;;4962240;28;20192;-73
2023/12/14 03:35:41;;;;;;;2.25;1.00;;;38.20;98.30;;;;;;4975281;28;20213;-74
2023/12/14 03:38:13;;;;;;;4.97;1.10;;;38.10;97.90;;;;;;4975703;28;20276;-76
2023/12/14 03:40:46;;;;;;;1.60;0.90;;;38.10;98.30;;;;;;4976550;28;20202;-74
2023/12/14 03:43:17;;;;;;;1.88;1.00;;;38.10;98.10;;;;;;4975601;28;20192;-74
2023/12/14 03:45:47;;;;;;;2.10;1.17;;;38.20;98.20;;;;;;4975731;28;20211;-74
2023/12/14 03:48:17;;;;;;;1.92;1.10;;;;;;;;;;4958866;28;20232;-74
2023/12/14 03:50:47;;;;;;;3.95;1.10;;;;;;;;;;4975378;28;20206;-74
2023/12/14 03:53:18;;;;;;;3.10;0.98;;;38.20;97.20;;;;;;4975007;28;20202;-74
2023/12/14 03:55:51;;;;;;;1.33;0.85;;;;;;;;;;4976293;28;20606;-75
2023/12/14 03:58:20;;;;;;;5.47;1.00;;;;;;;;;;4975746;28;20212;-74
2023/12/14 04:00:50;;;;;;;3.42;1.08;;;;;;;;;;4975925;28;20710;-73
2023/12/14 04:03:21;;;;;;;1.95;0.82;;;37.90;97.40;;;;;;4965713;28;20202;-74
2023/12/14 04:05:52;;;;;;;3.20;1.00;;;;;;;;;;4966926;28;20221;-74
2023/12/14 04:08:22;;;;;;;3.78;1.30;;;;;;;;;;4975196;28;20191;-75
2023/12/14 04:10:55;;;;;;;3.50;1.00;;;37.90;97.30;;;;;;4975544;28;20203;-74
2023/12/14 04:13:26;;;;;;;2.70;0.90;;;38.20;96.90;;;;;;4966069;28;20188;-74
2023/12/14 04:15:57;;;;;;;1.25;1.05;;;38.10;96.30;;;;;;4973916;28;20283;-74
2023/12/14 04:18:28;;;;;;;1.58;0.82;;;37.90;96.50;;;;;;4973930;28;20184;-73
2023/12/14 04:20:59;;;;;;;4.47;1.10;;;37.80;94.80;;;;;;4979082;28;20698;-75
2023/12/14 04:23:29;;;;;;;3.10;0.80;;;37.70;94.70;;;;;;4970556;28;20279;-75
2023/12/14 04:26:02;;;;;;;2.45;0.98;;;37.70;94.70;;;;;;4968496;28;20242;-76
2023/12/14 04:28:33;;;;;;;2.95;0.90;;;37.70;93.90;;;;;;4974938;28;20275;-75
2023/12/14 04:31:04;;;;;;;1.85;0.80;;;37.70;93.70;;;;;;4971436;28;20194;-76
2023/12/14 04:33:34;;;;;;;0.98;0.63;;;37.90;93.90;;;;;;4974212;28;20271;-74
2023/12/14 04:36:05;;;;;;;6.75;1.05;;;38.20;93.30;;;;;;4972129;28;20192;-76
2023/12/14 04:38:36;;;;;;;2.47;0.90;;;38.30;93.00;;;;;;4973545;28;20188;-76
2023/12/14 04:41:09;;;;;;;1.00;0.80;;;38.20;92.70;;;;;;4974338;28;20576;-75
2023/12/14 04:43:40;;;;;;;2.72;0.80;;;38.20;93.30;;;;;;4973756;28;20548;-76
2023/12/14 04:46:10;;;;;;;3.05;0.60;;;38.20;92.60;;;;;;4973122;28;20235;-74
2023/12/14 04:48:41;;;;;;;2.42;0.60;;;38.20;93.00;;;;;;4963424;28;20553;-75
2023/12/14 04:51:15;;;;;;;6.05;1.00;;;38.00;92.90;;;;;;4970071;28;20190;-76
2023/12/14 04:53:46;;;;;;;3.55;0.80;;;37.80;92.90;;;;;;4974611;28;20196;-75
2023/12/14 04:56:19;;;;;;;1.65;0.80;;;37.80;92.70;;;;;;4976502;28;20196;-76
2023/12/14 04:58:49;;;;;;;1.42;0.80;;;37.80;92.70;;;;;;4974003;28;20218;-76
2023/12/14 05:01:20;;;;;;;3.10;0.90;;;37.90;92.70;;;;;;4970984;28;20203;-75
2023/12/14 05:03:52;;;;;;;1.00;0.70;;;37.80;92.30;;;;;;4967348;28;20267;-75
2023/12/14 05:06:23;;;;;;;1.17;0.68;;;37.80;92.50;;;;;;4971069;28;20216;-76
2023/12/14 05:08:57;;;;;;;2.28;0.60;;;37.80;92.60;;;;;;4971756;28;20199;-76
2023/12/14 05:11:30;;;;;;;1.27;0.70;;;38.10;91.90;;;;;;4967486;28;20196;-75
2023/12/14 05:14:01;;;;;;;0.95;0.60;;;38.20;91.60;;;;;;4974174;28;20210;-76
2023/12/14 05:16:31;;;;;;;1.17;0.60;;;38.10;91.30;;;;;;4974580;28;20286;-75
2023/12/14 05:19:02;;;;;;;2.33;0.82;;;38.00;91.50;;;;;;4973171;28;20180;-75
2023/12/14 05:21:33;;;;;;;1.38;0.70;;;38.00;91.40;;;;;;4966550;28;20219;-75
2023/12/14 05:24:04;;;;;;;3.15;0.80;;;38.10;91.60;;;;;;4974524;28;20636;-77
2023/12/14 05:26:37;;;;;;;0.73;0.65;;;38.20;91.40;;;;;;4970576;28;20235;-76
2023/12/14 05:29:08;;;;;;;1.45;0.75;;;38.20;91.20;;;;;;4972820;28;20199;-75
2023/12/14 05:31:39;;;;;;;2.22;0.70;;;38.30;91.20;;;;;;4972266;28;20557;-75
2023/12/14 05:34:09;;;;;;;2.90;0.70;;;38.20;91.40;;;;;;4974174;28;20279;-75
2023/12/14 05:36:40;;;;;;;1.15;0.70;;;38.30;90.50;;;;;;4974575;28;20632;-75
2023/12/14 05:39:11;;;;;;;1.77;0.77;;;38.20;90.00;;;;;;4974410;28;20194;-76
2023/12/14 05:41:46;;;;;;;3.53;0.68;;;38.20;90.10;;;;;;4974146;28;20286;-75
2023/12/14 05:44:17;;;;;;;0.95;0.65;;;38.30;90.30;;;;;;4974778;28;20635;-75
2023/12/14 05:46:48;;;;;;;1.35;0.70;;;38.30;90.00;;;;;;4974396;28;20262;-76
2023/12/14 05:49:18;;;;;;;1.50;0.68;;;38.30;89.60;;;;;;4974486;28;20275;-75
2023/12/14 05:51:49;;;;;;;3.83;0.80;;;38.40;89.20;;;;;;4974832;28;20234;-75
2023/12/14 05:54:20;;;;;;;2.92;0.68;;;38.30;89.20;;;;;;4974644;28;20198;-75
2023/12/14 05:56:53;;;;;;;1.30;0.60;;;38.40;89.10;;;;;;4974288;28;20199;-75
2023/12/14 05:59:24;;;;;;;1.60;0.70;;;38.30;89.10;;;;;;4973633;28;20192;-75
2023/12/14 06:02:00;;;;;;;2.30;0.80;;;38.30;89.40;;;;;;4974455;28;20192;-77
2023/12/14 06:04:31;;;;;;;1.77;0.80;;;38.20;89.80;;;;;;4971927;28;20188;-74
2023/12/14 06:07:02;;;;;;;1.75;0.73;;;38.20;89.60;;;;;;4968423;28;20218;-75
2023/12/14 06:09:34;;;;;;;2.70;0.80;;;38.20;89.80;;;;;;4972868;28;20223;-76
2023/12/14 06:12:07;;;;;;;0.93;0.65;;;38.20;89.70;;;;;;4973835;28;20644;-74
2023/12/14 06:14:38;;;;;;;1.85;0.70;;;38.20;89.60;;;;;;4970371;28;20199;-75
2023/12/14 06:17:09;;;;;;;1.25;0.52;;;38.10;90.00;;;;;;4964007;28;20222;-74
2023/12/14 06:19:40;;;;;;;1.20;0.80;;;38.10;89.60;;;;;;4971803;28;20275;-78
2023/12/14 06:22:10;;;;;;;1.55;0.90;;;38.00;89.50;;;;;;4972394;28;20212;-77
2023/12/14 06:24:41;;;;;;;4.78;0.85;;;38.00;90.00;;;;;;4971916;28;20556;-76
2023/12/14 06:27:16;;;;;;;1.40;0.73;;;38.00;90.20;;;;;;4961946;28;20239;-75
2023/12/14 06:29:46;;;;;;;2.65;0.80;;;37.90;90.30;;;;;;4973829;28;20226;-76
2023/12/14 06:32:17;;;;;;;2.25;0.98;;;37.80;90.50;;;;;;4977585;28;20191;-75
2023/12/14 06:34:48;;;;;;;3.35;0.90;;;37.70;90.60;;;;;;4977097;28;20202;-75
2023/12/14 06:37:19;;;;;;;3.03;0.70;;;37.60;90.60;;;;;;4977422;28;20187;-75
2023/12/14 06:39:50;;;;;;;4.28;0.75;;;37.70;90.90;;;;;;4973947;28;20703;-75
2023/12/14 06:42:22;;;;;;;2.10;0.73;;;37.70;91.00;;;;;;4972798;28;20196;-75
2023/12/14 06:44:53;;;;;;;1.58;0.77;;;37.70;91.00;;;;;;4967316;28;20200;-76
2023/12/14 06:47:24;;;;;;;2.22;0.85;;;37.80;91.00;;;;;;4969205;28;20698;-76
2023/12/14 06:49:56;;;;;;;1.55;0.70;;;37.80;90.90;;;;;;4977347;28;20660;-75
2023/12/14 06:52:27;;;;;;;2.05;0.80;;;37.80;90.90;;;;;;4976848;28;20200;-76
2023/12/14 06:54:58;;;;;;;1.20;0.55;;;37.80;90.30;;;;;;4976419;28;20743;-75
2023/12/14 06:57:30;;;;;;;1.58;0.70;;;37.70;89.30;;;;;;4976172;28;20200;-75
2023/12/14 07:00:02;;;;;;;3.20;0.90;;;37.50;90.00;;;;;;4977322;28;20202;-75
2023/12/14 07:02:32;;;;;;;1.77;0.75;;;37.40;90.30;;;;;;4977776;28;20283;-75
2023/12/14 07:05:03;;;;;;;1.58;0.70;;;37.40;90.60;;;;;;4977273;28;20226;-75
2023/12/14 07:07:34;;;;;;;3.70;0.80;;;37.30;90.70;;;;;;4977082;28;20219;-75
2023/12/14 07:10:05;;;;;;;1.73;0.60;;;37.30;90.70;;;;;;4976455;28;20220;-74
2023/12/14 07:12:38;;;;;;;0.80;0.70;;;37.30;90.80;;;;;;4977129;28;20195;-75
2023/12/14 07:15:09;;;;;;;1.40;0.70;;;37.20;91.00;;;;;;4977052;28;20698;-75
2023/12/14 07:17:40;;;;;;;2.25;0.98;;;37.20;91.10;;;;;;4976904;28;20203;-76
2023/12/14 07:20:12;;;;;;;1.45;0.73;;;37.20;91.10;;;;;;4977131;28;20207;-76
2023/12/14 07:22:43;;;;;;;1.60;0.75;;;37.20;90.90;;;;;;4976607;28;20199;-75
2023/12/14 07:25:14;;;;;;;1.35;0.75;;;37.10;91.00;;;;;;4977013;28;20282;-75
2023/12/14 07:27:50;;;;;;;0.93;0.73;;;37.00;91.20;;;;;;4977111;28;20224;-75
2023/12/14 07:30:21;;;;;;;2.83;0.80;;;37.10;91.10;;;;;;4976669;28;20250;-77
2023/12/14 07:32:52;;;;;;;3.20;0.80;;;37.00;90.90;;;;;;4976484;28;20199;-74
2023/12/14 07:35:23;;;;;;;2.35;0.95;;;37.00;91.10;;;;;;4976668;28;20578;-75
2023/12/14 07:37:54;;;;;;;1.30;0.70;;;36.90;91.10;;;;;;4976486;28;20250;-75
2023/12/14 07:40:24;;;;;;;1.90;1.00;;;36.80;91.20;;;;;;4976505;28;20220;-75
2023/12/14 07:42:57;;;;;;;1.02;0.77;;;36.80;91.30;;;;;;4975364;28;20275;-75
2023/12/14 07:45:28;;;;;;;2.35;0.70;;;36.70;91.40;;;;;;5010704;23;20242;-75
2023/12/14 07:47:59;;;;;;;1.10;0.90;;;36.60;91.50;;;;;;4994503;28;20582;-75
2023/12/14 07:50:30;;;;;;;1.17;0.70;;;36.60;91.60;;;;;;4993841;28;20199;-74
2023/12/14 07:53:01;;;;;;;1.55;0.85;;;36.50;91.70;;;;;;4993502;28;20191;-76
2023/12/14 07:55:32;;;;;;;1.98;0.70;;;36.60;91.70;;;;;;4993656;28;20187;-75
2023/12/14 07:58:05;;;;;;;1.52;0.80;;;36.70;91.80;;;;;;4993613;28;20197;-75
2023/12/14 08:00:36;;;;;;;3.10;0.70;;;36.70;91.90;;;;;;4991846;28;20191;-75
2023/12/14 08:03:06;;;;;;;2.35;0.70;;;36.60;91.40;;;;;;4991810;28;20863;-74
2023/12/14 08:05:37;;;;;;;1.20;0.70;;;36.50;91.50;;;;;;4995230;28;20195;-75
2023/12/14 08:08:08;;;;;;;1.77;0.65;;;36.30;91.60;;;;;;4995207;28;20219;-75
2023/12/14 08:10:39;;;;;;;0.73;0.70;;;36.20;91.60;;;;;;4995494;28;20581;-75
2023/12/14 08:13:11;;;;;;;1.80;0.70;;;36.20;91.60;;;;;;4995370;28;20662;-75
2023/12/14 08:15:42;;;;;;;1.13;0.60;;;36.10;91.50;;;;;;4995335;28;20191;-75
2023/12/14 08:18:13;;;;;;;1.75;0.60;;;36.10;91.60;;;;;;4992708;28;20619;-74
2023/12/14 08:20:44;;;;;;;1.20;0.60;;;36.00;91.50;;;;;;4995150;28;20543;-75
2023/12/14 08:23:15;;;;;;;0.60;0.60;;;35.90;91.50;;;;;;4995928;28;20202;-75
2023/12/14 08:25:46;;;;;;;1.48;0.73;;;35.80;91.50;;;;;;4995211;28;20199;-74
2023/12/14 08:28:18;;;;;;;2.00;0.80;;;35.70;91.70;;;;;;4994961;28;20215;-74
2023/12/14 08:30:49;;;;;;;1.88;0.70;;;35.50;91.70;;;;;;4995021;28;20187;-75
2023/12/14 08:33:20;;;;;;;1.88;0.80;;;35.40;91.90;;;;;;4995030;28;20187;-75
2023/12/14 08:35:50;;;;;;;1.35;0.60;;;35.30;92.10;;;;;;4994742;28;20191;-75
2023/12/14 08:38:21;;;;;;;1.13;0.73;;;35.20;92.20;;;;;;4994934;28;20199;-75
2023/12/14 08:40:53;;;;;;;3.65;0.80;;;35.10;92.30;;;;;;4994910;28;20195;-74
2023/12/14 08:43:25;;;;;;;0.82;0.52;;;35.00;92.60;;;;;;4994971;28;20198;-74
2023/12/14 08:45:57;;;;;;;1.35;0.80;;;34.90;92.10;;;;;;4994779;28;20249;-74
2023/12/14 08:48:28;;;;;;;1.05;0.70;;;34.80;92.10;;;;;;4994709;28;20705;-74
2023/12/14 08:50:58;;;;;;;2.50;1.00;;;34.70;92.00;;;;;;4994834;28;20286;-74
2023/12/14 08:53:29;;;;;;;1.40;0.80;;;34.70;92.10;;;;;;4994326;28;20294;-74
2023/12/14 08:56:00;;;;;;;1.48;0.60;;;34.50;92.20;;;;;;4994733;28;20645;-74
2023/12/14 08:58:33;;;;;;;2.35;0.70;;;34.40;92.10;;;;;;4992177;28;20279;-74
2023/12/14 09:01:04;;;;;;;1.33;0.85;;;34.40;92.20;;;;;;4983356;28;20194;-75
2023/12/14 09:03:34;;;;;;;1.67;0.88;;;34.30;92.30;;;;;;4994414;28;20203;-74
2023/12/14 09:06:06;;;;;;;0.80;0.80;;;34.20;92.30;;;;;;4994325;28;20191;-74
2023/12/14 09:08:36;;;;;;;1.45;0.65;;;34.10;92.40;;;;;;4994390;28;20230;-75
2023/12/14 09:11:07;;;;;;;1.15;0.80;;;34.10;92.40;;;;;;4994442;28;20192;-74
2023/12/14 09:13:40;;;;;;;2.40;0.80;;;34.00;92.60;;;;;;4994388;28;20554;-75
2023/12/14 09:16:12;;;;;;;1.73;0.88;;;33.90;92.70;;;;;;4994749;28;20227;-74
2023/12/14 09:18:42;;;;;;;1.77;1.08;;;33.90;92.80;;;;;;4991913;28;20191;-75
2023/12/14 09:21:14;;;;;;;2.17;1.00;;;33.80;93.00;;;;;;4993341;28;20663;-75
2023/12/14 09:23:45;;;;;;;1.42;0.85;;;33.80;93.20;;;;;;4994232;28;20199;-75
2023/12/14 09:26:17;;;;;;;1.70;0.93;;;33.60;93.50;;;;;;4994202;28;20193;-75
2023/12/14 09:28:49;;;;;;;2.70;1.17;;;33.60;93.60;;;;;;4994063;28;20223;-75
2023/12/14 09:31:20;;;;;;;1.95;1.23;;;33.60;93.80;;;;;;4994126;28;20192;-74
2023/12/14 09:33:52;;;;;;;1.33;1.00;;;33.40;94.00;;;;;;4993884;28;20188;-75
2023/12/14 09:36:23;;;;;;;3.65;1.13;;;33.30;95.20;;;;;;4994051;28;20294;-76
2023/12/14 09:38:53;;;;;;;15.80;3.50;;;33.00;96.90;;;;;;4994241;28;20203;-76
2023/12/14 09:41:25;;;;;;;17.08;3.97;;;32.00;99.90;;;;;;4994031;28;20242;-74
2023/12/14 09:43:59;;;;;;;20.88;3.90;;;30.90;99.90;;;;;;4993842;28;20234;-74
2023/12/14 09:46:31;;;;;;;25.38;4.07;;;30.00;99.90;;;;;;4994042;28;20190;-74
2023/12/14 09:49:04;;;;;;;21.33;4.10;;;29.10;99.90;;;;;;4993755;28;20682;-74
2023/12/14 09:51:35;;;;;;;22.45;4.10;;;28.60;99.90;;;;;;4993883;28;20290;-75
2023/12/14 09:54:05;;;;;;;20.88;4.63;;;28.20;99.90;;;;;;4993929;28;20202;-75
2023/12/14 09:56:36;;;;;;;19.45;3.88;;;27.90;99.90;;;;;;4993890;28;20698;-73
2023/12/14 09:59:10;;;;;;;24.83;4.70;;;27.60;99.90;;;;;;4988607;28;20196;-75
2023/12/14 10:01:41;;;;;;;23.88;4.47;;;27.30;99.90;;;;;;4992067;28;20191;-74
2023/12/14 10:04:13;;;;;;;21.55;3.67;;;27.10;99.90;;;;;;4982450;28;20194;-73
2023/12/14 10:06:46;;;;;;;23.17;4.38;;;26.80;99.90;;;;;;4993788;28;20192;-74
2023/12/14 10:09:18;;;;;;;27.08;4.70;;;26.50;99.90;;;;;;4995539;28;20215;-73
2023/12/14 10:11:49;;;;;;;20.33;4.97;;;26.20;99.90;;;;;;4987223;28;20195;-74
2023/12/14 10:14:27;;;;;;;18.98;4.15;;;26.10;99.90;;;;;;4981713;28;20554;-75
2023/12/14 10:16:58;;;;;;;22.40;4.40;;;25.80;99.90;;;;;;4977713;28;20538;-75
2023/12/14 10:19:29;;;;;;;24.23;4.80;;;25.60;99.90;;;;;;4990984;28;20208;-74
2023/12/14 10:22:01;;;;;;;24.30;4.75;;;25.60;99.90;;;;;;4996715;28;20195;-74
2023/12/14 10:24:35;;;;;;;28.02;4.85;;;25.40;99.90;;;;;;4996057;28;20195;-74
2023/12/14 10:27:09;;;;;;;26.95;4.93;;;25.30;99.90;;;;;;4987221;28;20213;-73
2023/12/14 10:29:44;;;;;;;22.10;4.13;;;25.10;99.90;;;;;;4985695;28;20203;-74
2023/12/14 10:32:15;;;;;;;25.77;4.55;;;25.00;99.90;;;;;;4982464;28;20192;-75
2023/12/14 10:34:46;;;;;;;26.33;5.10;;;24.90;99.90;;;;;;4996338;28;20586;-74
2023/12/14 10:37:18;;;;;;;28.45;5.00;;;24.80;99.90;;;;;;4996677;28;20188;-74
2023/12/14 10:39:50;;;;;;;24.42;5.32;;;24.70;99.90;;;;;;4990694;28;20614;-75
2023/12/14 10:42:24;;;;;;;22.35;3.85;;;24.60;99.90;;;;;;4986900;28;20643;-75
2023/12/14 10:44:57;;;;;;;25.55;4.78;;;24.50;99.90;;;;;;4986199;28;20588;-74
2023/12/14 10:47:29;;;;;;;21.83;3.92;;;24.40;99.90;;;;;;4978466;28;20566;-74
2023/12/14 10:50:02;;;;;;;21.63;4.43;;;24.30;99.90;;;;;;4986993;28;20188;-73
2023/12/14 10:52:35;;;;;;;24.17;4.05;;;24.20;99.90;;;;;;4996495;28;20274;-74
2023/12/14 10:55:10;;;;;;;24.02;4.43;;;24.20;99.90;;;;;;4995611;28;20191;-74
2023/12/14 10:57:41;;;;;;;24.38;4.15;;;24.10;99.90;;;;;;4997000;28;20203;-75
2023/12/14 11:00:15;;;;;;;24.13;3.50;;;24.10;99.90;;;;;;4993472;28;20250;-75
2023/12/14 11:02:50;;;;;;;20.70;3.55;;;24.10;99.90;;;;;;4993509;28;20286;-75
2023/12/14 11:05:26;;;;;;;19.40;4.10;;;24.00;99.90;;;;;;4977237;28;20543;-74
2023/12/14 11:08:00;;;;;;;23.13;4.07;;;24.00;99.90;;;;;;4976998;28;20656;-75
2023/12/14 11:10:41;;;;;;;23.45;4.00;;;23.90;99.90;;;;;;4985176;28;20188;-75
2023/12/14 11:13:13;;;;;;;27.60;4.15;;;23.90;99.90;;;;;;4992806;28;20198;-74
2023/12/14 11:15:51;;;;;;;24.50;3.90;;;23.90;99.90;;;;;;4995705;28;20557;-75
2023/12/14 11:18:30;;;;;;;23.85;3.88;;;23.80;99.90;;;;;;4994192;28;20199;-75
2023/12/14 11:21:02;;;;;;;21.67;3.50;;;23.80;99.90;;;;;;4996292;28;20191;-74
2023/12/14 11:23:35;;;;;;;26.42;4.22;;;23.70;99.90;;;;;;4992410;28;20188;-74
2023/12/14 11:26:07;;;;;;;24.05;3.88;;;23.70;99.90;;;;;;4989807;28;20227;-74
2023/12/14 11:28:41;;;;;;;25.75;3.83;;;23.60;99.90;;;;;;4979586;28;20220;-74
2023/12/14 11:31:16;;;;;;;19.92;4.00;;;23.60;99.90;;;;;;4990305;28;20649;-74
2023/12/14 11:33:47;;;;;;;30.80;3.92;;;23.50;99.90;;;;;;4995640;28;20210;-74
2023/12/14 11:36:18;;;;;;;21.13;4.13;;;23.50;99.90;;;;;;4995772;28;20188;-74
2023/12/14 11:38:50;;;;;;;26.38;3.90;;;23.40;99.90;;;;;;4990077;28;20188;-74
2023/12/14 11:41:21;;;;;;;23.95;4.45;;;23.30;99.90;;;;;;4976637;28;20644;-74
2023/12/14 11:43:51;;;;;;;23.65;3.80;;;23.40;99.90;;;;;;4993010;28;20216;-74
2023/12/14 11:46:24;;;;;;;24.25;4.60;;;23.40;99.90;;;;;;4986908;28;20192;-74
2023/12/14 11:48:55;;;;;;;26.40;3.75;;;23.40;99.90;;;;;;4983231;28;20227;-74
2023/12/14 11:51:26;;;;;;;26.95;3.95;;;23.30;99.90;;;;;;4995873;28;20238;-74
2023/12/14 11:53:58;;;;;;;28.58;4.03;;;23.20;99.90;;;;;;4994708;28;20307;-75
2023/12/14 11:56:30;;;;;;;23.67;4.07;;;23.20;99.90;;;;;;4995802;28;20195;-75
2023/12/14 11:59:01;;;;;;;20.02;3.50;;;23.20;99.90;;;;;;4993858;28;20592;-76
2023/12/14 12:01:35;;;;;;;19.30;3.78;;;23.20;99.90;;;;;;4988045;28;20564;-75
2023/12/14 12:04:13;;;;;;;20.48;3.60;;;23.20;99.90;;;;;;4986296;28;20192;-76
2023/12/14 12:06:44;;;;;;;23.17;3.72;;;23.30;99.90;;;;;;4976130;28;20196;-75
2023/12/14 12:09:14;;;;;;;24.55;3.92;;;23.30;99.90;;;;;;4995619;28;20589;-74
2023/12/14 12:11:45;;;;;;;18.33;3.53;;;23.30;99.90;;;;;;4995587;28;20199;-76
2023/12/14 12:14:16;;;;;;;25.83;3.70;;;23.30;99.90;;;;;;4995316;28;20192;-75
2023/12/14 12:16:50;;;;;;;22.52;3.97;;;23.30;99.90;;;;;;4995453;28;20227;-76
2023/12/14 12:19:20;;;;;;;23.63;3.63;;;23.30;99.90;;;;;;4994944;28;20199;-75
2023/12/14 12:21:51;;;;;;;21.88;3.90;;;23.30;99.90;;;;;;4994709;28;20196;-74
2023/12/14 12:24:22;;;;;;;17.88;3.92;;;23.30;99.90;;;;;;4985046;28;20199;-75
2023/12/14 12:26:53;;;;;;;24.67;3.80;;;23.20;99.90;;;;;;4989115;28;20270;-76
2023/12/14 12:29:24;;;;;;;19.92;3.40;;;23.20;99.90;;;;;;4983249;28;20218;-75
2023/12/14 12:31:57;;;;;;;22.63;3.40;;;23.20;99.90;;;;;;4991445;28;20280;-74
2023/12/14 12:34:27;;;;;;;21.45;4.03;;;23.10;99.90;;;;;;4990302;28;20192;-75
2023/12/14 12:36:59;;;;;;;17.92;3.80;;;23.10;99.90;;;;;;4980959;28;20188;-74
2023/12/14 12:39:30;;;;;;;21.67;3.85;;;23.10;99.90;;;;;;4993243;28;20203;-74
2023/12/14 12:42:01;;;;;;;20.80;3.58;;;23.10;99.90;;;;;;4989011;28;20180;-74
2023/12/14 12:44:32;;;;;;;15.45;3.28;;;23.20;99.90;;;;;;4975016;28;20236;-76
2023/12/14 12:47:04;;;;;;;19.10;3.10;;;23.20;99.90;;;;;;4976427;28;20276;-75
2023/12/14 12:49:35;;;;;;;21.50;3.67;;;23.20;99.90;;;;;;4987136;28;20216;-75
2023/12/14 12:52:06;;;;;;;16.98;3.80;;;23.20;99.90;;;;;;4982669;28;20191;-74
2023/12/14 12:54:37;;;;;;;18.83;3.35;;;23.20;99.90;;;;;;4992926;28;20194;-77
2023/12/14 12:57:08;;;;;;;20.00;3.20;;;23.20;99.90;;;;;;4993890;28;20210;-75
2023/12/14 12:59:39;;;;;;;16.15;3.38;;;23.20;99.90;;;;;;4990455;28;20224;-77
2023/12/14 13:02:11;;;;;;;23.65;3.50;;;23.20;99.90;;;;;;4980070;28;20228;-73
2023/12/14 13:04:42;;;;;;;16.30;2.92;;;23.20;99.90;;;;;;4994158;28;20206;-76
2023/12/14 13:07:13;;;;;;;20.02;2.92;;;23.20;99.90;;;;;;4993885;28;20698;-77